Time;durP1;ratioP1;P1;durP2;ratioP2;P2;SDS_P1;SDS_P2;PMS_P1;PMS_P2;Temp;Humidity;BMP_temperature;BMP_pressure;BME280_temperature;BME280_humidity;BME280_pressure;Samples;Min_cycle;Max_cycle;Signal;HPM_P1;HPM_P2
2021/09/08 00:01:18;;;;;;;19.13;12.20;;;10.70;66.90;;;;;;5114514;28;20020;-69
2021/09/08 00:03:43;;;;;;;19.27;11.90;;;10.70;67.00;;;;;;5114270;28;20100;-69
2021/09/08 00:06:09;;;;;;;22.45;12.77;;;10.60;67.00;;;;;;5095989;28;20019;-69
2021/09/08 00:08:35;;;;;;;22.58;12.13;;;10.60;67.10;;;;;;5114194;28;20024;-69
2021/09/08 00:11:01;;;;;;;19.17;11.23;;;10.60;67.20;;;;;;5114042;28;20037;-70
2021/09/08 00:13:29;;;;;;;17.20;11.90;;;10.60;67.30;;;;;;5114058;28;20030;-69
2021/09/08 00:15:55;;;;;;;16.85;11.13;;;10.60;67.30;;;;;;5114051;28;20023;-69
2021/09/08 00:18:21;;;;;;;16.33;11.93;;;10.50;67.30;;;;;;5114021;28;20527;-69
2021/09/08 00:20:47;;;;;;;16.63;11.73;;;10.60;67.30;;;;;;5095322;28;20024;-69
2021/09/08 00:23:12;;;;;;;19.65;11.25;;;10.50;67.30;;;;;;5113313;28;20047;-69
2021/09/08 00:25:38;;;;;;;16.92;10.82;;;10.50;67.50;;;;;;5113722;28;20027;-69
2021/09/08 00:28:04;;;;;;;17.55;11.55;;;10.50;67.60;;;;;;5113742;28;20028;-69
2021/09/08 00:30:30;;;;;;;19.85;13.43;;;10.50;67.50;;;;;;5113809;28;20100;-69
2021/09/08 00:32:55;;;;;;;23.67;13.00;;;10.40;67.40;;;;;;5115081;28;20038;-68
2021/09/08 00:35:21;;;;;;;21.33;12.02;;;10.40;67.50;;;;;;5115462;28;20023;-69
2021/09/08 00:37:47;;;;;;;17.55;11.43;;;10.40;67.60;;;;;;5114317;28;20470;-69
2021/09/08 00:40:13;;;;;;;18.17;10.93;;;10.40;67.60;;;;;;5113634;28;20027;-69
2021/09/08 00:42:38;;;;;;;18.20;10.18;;;10.40;67.50;;;;;;5113513;28;20024;-69
2021/09/08 00:45:05;;;;;;;18.02;10.07;;;10.40;67.40;;;;;;5113503;28;20027;-69
2021/09/08 00:47:31;;;;;;;16.70;9.93;;;10.40;67.40;;;;;;5113435;28;20747;-69
2021/09/08 00:49:57;;;;;;;14.85;9.10;;;10.40;67.40;;;;;;5113533;28;20092;-70
2021/09/08 00:52:23;;;;;;;16.40;9.63;;;10.40;67.40;;;;;;5095022;28;20023;-70
2021/09/08 00:54:50;;;;;;;14.45;8.80;;;10.40;67.30;;;;;;5113152;28;20019;-70
2021/09/08 00:57:18;;;;;;;14.73;9.63;;;10.40;67.30;;;;;;5113245;28;20047;-70
2021/09/08 00:59:44;;;;;;;15.30;9.90;;;10.40;67.20;;;;;;5113078;28;20048;-70
2021/09/08 01:02:10;;;;;;;19.30;9.07;;;10.40;67.10;;;;;;5113015;28;20016;-69
2021/09/08 01:04:37;;;;;;;18.02;9.18;;;10.40;67.00;;;;;;5112993;28;20027;-69
2021/09/08 01:07:05;;;;;;;15.32;10.77;;;10.30;66.90;;;;;;5112929;28;20024;-69
2021/09/08 01:09:31;;;;;;;20.75;13.77;;;10.40;66.90;;;;;;5113094;28;20031;-70
2021/09/08 01:11:57;;;;;;;22.80;14.85;;;10.30;66.80;;;;;;5112955;28;20034;-70
2021/09/08 01:14:23;;;;;;;15.43;9.57;;;10.30;66.90;;;;;;5112944;28;20137;-69
2021/09/08 01:16:54;;;;;;;17.40;10.00;;;10.30;66.90;;;;;;5112991;28;20124;-70
2021/09/08 01:19:21;;;;;;;14.15;9.55;;;10.30;66.90;;;;;;5112815;28;20096;-70
2021/09/08 01:21:47;;;;;;;16.98;10.02;;;10.30;67.00;;;;;;5112647;28;20020;-70
2021/09/08 01:24:13;;;;;;;15.82;9.65;;;10.30;67.80;;;;;;5112734;28;20381;-70
2021/09/08 01:26:40;;;;;;;17.00;9.75;;;10.30;67.10;;;;;;5112578;28;20024;-69
2021/09/08 01:29:07;;;;;;;14.52;9.20;;;10.30;67.20;;;;;;5112673;28;20068;-70
2021/09/08 01:31:33;;;;;;;17.98;9.98;;;10.20;67.10;;;;;;5112650;28;20024;-69
2021/09/08 01:33:59;;;;;;;12.60;8.50;;;10.20;67.30;;;;;;5112401;28;20123;-70
2021/09/08 01:36:25;;;;;;;14.35;9.25;;;10.20;68.00;;;;;;5112534;28;20481;-71
2021/09/08 01:38:51;;;;;;;14.70;8.82;;;10.20;67.30;;;;;;5112380;28;20363;-70
2021/09/08 01:41:16;;;;;;;15.35;8.82;;;10.20;67.20;;;;;;5112459;28;20026;-70
2021/09/08 01:43:45;;;;;;;16.55;9.63;;;10.20;67.10;;;;;;5112394;28;20044;-69
2021/09/08 01:46:21;;;;;;;17.55;8.98;;;10.20;67.30;;;;;;5112393;28;20027;-70
2021/09/08 01:48:47;;;;;;;14.27;8.55;;;10.20;67.30;;;;;;5112350;28;20016;-70
2021/09/08 01:51:14;;;;;;;14.68;8.77;;;10.20;67.10;;;;;;5112567;28;20038;-70
2021/09/08 01:53:40;;;;;;;11.75;8.20;;;10.20;67.70;;;;;;5112678;28;20080;-70
2021/09/08 01:56:06;;;;;;;11.27;8.38;;;10.10;67.00;;;;;;5112538;28;20030;-70
2021/09/08 01:58:31;;;;;;;15.30;9.35;;;10.10;67.00;;;;;;5111935;28;20127;-70
2021/09/08 02:00:58;;;;;;;17.80;9.20;;;10.10;67.10;;;;;;5112324;28;20111;-70
2021/09/08 02:03:23;;;;;;;13.25;8.20;;;10.10;67.20;;;;;;5112450;28;20050;-69
2021/09/08 02:05:49;;;;;;;12.23;7.93;;;10.10;67.20;;;;;;5113620;28;20427;-70
2021/09/08 02:08:15;;;;;;;18.00;8.85;;;10.10;67.30;;;;;;5113095;28;20099;-70
2021/09/08 02:10:41;;;;;;;15.35;8.95;;;10.10;67.30;;;;;;5112239;28;20039;-70
2021/09/08 02:13:06;;;;;;;13.80;7.90;;;10.10;67.30;;;;;;5112189;28;20038;-70
2021/09/08 02:15:33;;;;;;;46.58;31.13;;;10.10;67.20;;;;;;5112281;28;20076;-69
2021/09/08 02:17:58;;;;;;;29.45;20.83;;;10.10;67.10;;;;;;5112058;28;20015;-70
2021/09/08 02:20:24;;;;;;;15.02;9.07;;;10.00;67.10;;;;;;5112022;28;20370;-70
2021/09/08 02:22:50;;;;;;;14.68;10.13;;;10.00;67.10;;;;;;5112026;28;20091;-70
2021/09/08 02:25:15;;;;;;;14.75;9.45;;;10.00;67.10;;;;;;5112096;28;20408;-70
2021/09/08 02:27:41;;;;;;;14.95;10.15;;;10.00;67.10;;;;;;5112163;28;20027;-70
2021/09/08 02:30:08;;;;;;;13.07;9.23;;;10.00;67.20;;;;;;5111793;28;20020;-70
2021/09/08 02:32:34;;;;;;;13.80;9.05;;;10.00;67.30;;;;;;5111948;28;20024;-70
2021/09/08 02:34:59;;;;;;;21.35;13.82;;;9.90;67.40;;;;;;5111949;28;20522;-69
2021/09/08 02:37:25;;;;;;;13.70;9.98;;;10.00;67.60;;;;;;5112020;28;20019;-70
2021/09/08 02:39:51;;;;;;;15.68;10.40;;;9.90;67.70;;;;;;5112242;28;20023;-70
2021/09/08 02:42:17;;;;;;;15.98;9.45;;;9.90;67.70;;;;;;5093759;28;20160;-69
2021/09/08 02:44:43;;;;;;;17.92;8.88;;;9.90;67.70;;;;;;5112612;28;20042;-69
2021/09/08 02:47:10;;;;;;;14.98;8.55;;;9.90;67.80;;;;;;5115716;28;20362;-69
2021/09/08 02:49:36;;;;;;;12.98;8.50;;;9.80;67.90;;;;;;5115727;28;20107;-69
2021/09/08 02:52:02;;;;;;;19.85;8.55;;;9.80;68.10;;;;;;5115765;28;20107;-69
2021/09/08 02:54:27;;;;;;;13.95;8.95;;;9.80;68.20;;;;;;5115550;28;20097;-69
2021/09/08 02:56:53;;;;;;;15.75;9.45;;;9.80;68.30;;;;;;5097381;28;20116;-69
2021/09/08 02:59:19;;;;;;;13.52;9.88;;;9.70;68.40;;;;;;5115305;28;20066;-69
2021/09/08 03:01:44;;;;;;;12.98;10.18;;;9.70;68.50;;;;;;5097392;28;20053;-69
2021/09/08 03:04:10;;;;;;;12.25;8.52;;;9.70;68.60;;;;;;5115405;28;20018;-68
2021/09/08 03:06:36;;;;;;;15.82;8.35;;;9.70;68.60;;;;;;5115307;28;20488;-69
2021/09/08 03:09:02;;;;;;;15.57;9.32;;;9.60;68.60;;;;;;5096949;28;20065;-69
2021/09/08 03:11:27;;;;;;;13.55;8.85;;;9.70;68.70;;;;;;5115193;28;20031;-69
2021/09/08 03:13:54;;;;;;;14.23;9.07;;;9.60;68.60;;;;;;5114936;28;20427;-69
2021/09/08 03:16:20;;;;;;;13.68;8.50;;;9.60;68.60;;;;;;5115083;28;20106;-69
2021/09/08 03:18:46;;;;;;;12.55;8.65;;;9.60;68.80;;;;;;5115206;28;20095;-70
2021/09/08 03:21:11;;;;;;;16.75;9.15;;;9.60;68.80;;;;;;5115095;28;20072;-69
2021/09/08 03:23:37;;;;;;;15.48;8.35;;;9.60;68.80;;;;;;5115203;28;20032;-70
2021/09/08 03:26:03;;;;;;;14.27;8.40;;;9.70;68.80;;;;;;5115295;28;20027;-70
2021/09/08 03:28:28;;;;;;;16.63;8.35;;;9.70;68.80;;;;;;5114997;28;20023;-69
2021/09/08 03:30:54;;;;;;;14.40;9.27;;;9.90;68.80;;;;;;5114702;28;20051;-69
2021/09/08 03:33:20;;;;;;;13.88;8.27;;;10.20;68.50;;;;;;5114814;28;20503;-70
2021/09/08 03:35:46;;;;;;;14.80;8.60;;;10.70;68.00;;;;;;5114740;28;20050;-69
2021/09/08 03:38:11;;;;;;;12.40;8.85;;;11.10;67.10;;;;;;5114427;28;20028;-69
2021/09/08 03:40:37;;;;;;;14.23;9.57;;;11.60;66.00;;;;;;5114674;28;20096;-69
2021/09/08 03:43:03;;;;;;;25.17;8.60;;;12.20;64.90;;;;;;5114667;28;20066;-70
2021/09/08 03:45:29;;;;;;;16.52;9.15;;;12.90;63.70;;;;;;5114553;28;20028;-69
2021/09/08 03:47:55;;;;;;;13.85;8.85;;;13.50;62.70;;;;;;5114307;28;20023;-70
2021/09/08 03:50:20;;;;;;;12.80;8.48;;;14.20;60.80;;;;;;5114601;28;20378;-69
2021/09/08 03:52:46;;;;;;;17.38;8.30;;;14.80;59.20;;;;;;5114463;28;20043;-70
2021/09/08 03:55:12;;;;;;;11.90;8.23;;;15.50;57.70;;;;;;5114364;28;20096;-70
2021/09/08 03:57:37;;;;;;;16.02;8.40;;;16.20;56.00;;;;;;5113776;28;20047;-70
2021/09/08 04:00:06;;;;;;;12.20;8.35;;;16.90;54.60;;;;;;5113879;28;20018;-69
2021/09/08 04:02:31;;;;;;;12.73;7.68;;;17.60;53.10;;;;;;5113971;28;20024;-69
2021/09/08 04:04:58;;;;;;;11.32;8.50;;;18.30;51.80;;;;;;5114037;28;20027;-69
2021/09/08 04:07:25;;;;;;;21.27;14.65;;;18.90;50.40;;;;;;5113973;28;20012;-70
2021/09/08 04:09:51;;;;;;;31.13;19.83;;;19.60;49.10;;;;;;5113851;28;20027;-70
2021/09/08 04:12:17;;;;;;;14.93;10.23;;;20.20;47.90;;;;;;5113784;28;20052;-70
2021/09/08 04:14:43;;;;;;;16.80;10.43;;;20.90;46.90;;;;;;5113935;28;20034;-70
2021/09/08 04:17:09;;;;;;;14.45;10.38;;;21.50;45.90;;;;;;5113914;28;20024;-69
2021/09/08 04:19:35;;;;;;;12.93;8.27;;;22.10;44.80;;;;;;5113208;28;20447;-69
2021/09/08 04:22:01;;;;;;;16.75;9.57;;;22.60;43.80;;;;;;5113675;28;20050;-69
2021/09/08 04:24:27;;;;;;;14.00;8.55;;;23.10;42.90;;;;;;5113484;28;20466;-70
2021/09/08 04:26:52;;;;;;;14.18;8.73;;;23.50;42.10;;;;;;5113430;28;20043;-69
2021/09/08 04:29:18;;;;;;;18.13;8.70;;;24.00;41.40;;;;;;5113269;28;20035;-70
2021/09/08 04:31:44;;;;;;;14.43;8.50;;;24.50;40.60;;;;;;5113223;28;20073;-70
2021/09/08 04:34:10;;;;;;;15.35;8.63;;;25.00;40.00;;;;;;5112930;28;20092;-70
2021/09/08 04:36:35;;;;;;;11.63;7.88;;;25.40;39.50;;;;;;5112714;28;20015;-70
2021/09/08 04:39:02;;;;;;;13.10;8.13;;;25.80;39.00;;;;;;5112754;28;20056;-70
2021/09/08 04:41:28;;;;;;;12.52;7.85;;;26.20;38.60;;;;;;5112107;28;20019;-70
2021/09/08 04:43:54;;;;;;;10.60;8.18;;;26.60;38.10;;;;;;5112743;28;20034;-70
2021/09/08 04:46:20;;;;;;;13.73;7.55;;;27.00;37.60;;;;;;5112960;28;20096;-70
2021/09/08 04:48:45;;;;;;;16.02;8.20;;;27.30;37.20;;;;;;5112708;28;20027;-70
2021/09/08 04:51:11;;;;;;;10.65;8.23;;;27.70;36.90;;;;;;5112529;28;20076;-71
2021/09/08 04:53:37;;;;;;;12.02;8.10;;;28.10;36.60;;;;;;5112644;28;20040;-71
2021/09/08 04:56:03;;;;;;;17.70;7.93;;;28.50;36.30;;;;;;5112540;28;20028;-71
2021/09/08 04:58:28;;;;;;;16.42;7.63;;;28.90;35.80;;;;;;5112314;28;20477;-71
2021/09/08 05:00:54;;;;;;;15.57;8.30;;;29.20;35.70;;;;;;5112780;28;20058;-71
2021/09/08 05:03:20;;;;;;;9.60;7.85;;;29.50;35.20;;;;;;5112295;28;20019;-71
2021/09/08 05:05:46;;;;;;;12.75;7.40;;;29.90;35.00;;;;;;5112306;28;20438;-71
2021/09/08 05:08:11;;;;;;;13.18;7.82;;;30.10;34.60;;;;;;5111621;28;20035;-70
2021/09/08 05:10:37;;;;;;;17.27;7.85;;;30.40;34.20;;;;;;5112245;28;20089;-71
2021/09/08 05:13:03;;;;;;;17.33;8.00;;;30.70;34.10;;;;;;5112178;28;20099;-70
2021/09/08 05:15:28;;;;;;;21.05;8.35;;;31.00;34.00;;;;;;5093884;28;20431;-69
2021/09/08 05:17:54;;;;;;;16.83;8.20;;;31.20;33.70;;;;;;5093491;28;20028;-70
2021/09/08 05:20:20;;;;;;;18.48;8.05;;;31.50;33.70;;;;;;5112474;28;20049;-71
2021/09/08 05:22:46;;;;;;;15.82;8.00;;;31.80;33.30;;;;;;5111809;28;20051;-71
2021/09/08 05:25:11;;;;;;;17.67;9.13;;;32.10;33.20;;;;;;5093776;28;20024;-71
2021/09/08 05:27:37;;;;;;;11.05;7.75;;;32.40;32.90;;;;;;5111975;28;20457;-71
2021/09/08 05:30:04;;;;;;;17.15;8.23;;;32.60;32.60;;;;;;5112038;28;20024;-71
2021/09/08 05:32:30;;;;;;;13.88;7.90;;;32.90;32.50;;;;;;5111939;28;20015;-70
2021/09/08 05:34:56;;;;;;;17.23;8.50;;;33.20;32.10;;;;;;5111835;28;20496;-70
2021/09/08 05:37:23;;;;;;;14.20;7.45;;;33.40;31.90;;;;;;5111730;28;20023;-68
2021/09/08 05:39:49;;;;;;;15.10;7.65;;;33.70;31.60;;;;;;5111802;28;20032;-70
2021/09/08 05:42:15;;;;;;;12.48;7.43;;;33.80;31.40;;;;;;5111755;28;20022;-69
2021/09/08 05:44:40;;;;;;;12.57;7.90;;;34.00;31.30;;;;;;5111666;28;20367;-68
2021/09/08 05:47:06;;;;;;;21.80;8.45;;;34.10;31.10;;;;;;5111415;28;20055;-69
2021/09/08 05:49:32;;;;;;;11.75;7.97;;;34.30;30.90;;;;;;5111335;28;20130;-69
2021/09/08 05:51:57;;;;;;;12.20;7.47;;;34.60;30.80;;;;;;5111275;28;20026;-69
2021/09/08 05:54:23;;;;;;;17.33;7.97;;;34.80;30.60;;;;;;5111501;28;20407;-68
2021/09/08 05:56:49;;;;;;;10.77;7.45;;;35.00;30.40;;;;;;5111699;28;20044;-69
2021/09/08 05:59:14;;;;;;;13.75;7.38;;;35.20;30.30;;;;;;5111347;28;20130;-69
2021/09/08 06:01:40;;;;;;;11.43;6.85;;;35.50;30.10;;;;;;5111365;28;20076;-69
2021/09/08 06:04:06;;;;;;;10.30;6.47;;;35.70;29.90;;;;;;5111621;28;20039;-69
2021/09/08 06:06:32;;;;;;;19.15;6.55;;;36.00;29.80;;;;;;5093375;28;20072;-69
2021/09/08 06:08:57;;;;;;;8.65;6.15;;;36.10;29.70;;;;;;5111404;28;20424;-69
2021/09/08 06:11:23;;;;;;;9.90;6.00;;;36.40;29.50;;;;;;5111521;28;20031;-70
2021/09/08 06:13:49;;;;;;;15.05;7.40;;;36.50;29.40;;;;;;5111633;28;20084;-71
2021/09/08 06:16:15;;;;;;;10.13;5.53;;;36.60;29.40;;;;;;5111430;28;20024;-70
2021/09/08 06:18:41;;;;;;;9.98;5.35;;;36.70;29.30;;;;;;5111085;28;20432;-70
2021/09/08 06:21:07;;;;;;;12.88;5.88;;;36.70;29.10;;;;;;5113873;28;20015;-71
2021/09/08 06:23:33;;;;;;;10.45;5.80;;;36.90;29.10;;;;;;5114179;28;20022;-70
2021/09/08 06:25:58;;;;;;;6.97;4.97;;;37.20;29.00;;;;;;5114231;28;20051;-70
2021/09/08 06:28:24;;;;;;;9.00;4.90;;;37.20;28.80;;;;;;5114101;28;20027;-70
2021/09/08 06:30:50;;;;;;;6.80;4.90;;;37.20;28.50;;;;;;5114292;28;20505;-70
2021/09/08 06:33:16;;;;;;;8.35;4.75;;;37.30;28.70;;;;;;5095646;28;20026;-70
2021/09/08 06:35:42;;;;;;;9.85;4.68;;;37.30;28.60;;;;;;5114178;28;20068;-70
2021/09/08 06:38:08;;;;;;;8.10;4.72;;;37.40;28.50;;;;;;5113776;28;20127;-70
2021/09/08 06:40:34;;;;;;;8.10;5.03;;;37.50;28.40;;;;;;5113972;28;20069;-70
2021/09/08 06:43:00;;;;;;;8.77;5.22;;;37.30;29.00;;;;;;5114111;28;20298;-70
2021/09/08 06:45:26;;;;;;;10.07;5.72;;;37.20;28.40;;;;;;5113307;28;20016;-71
2021/09/08 06:47:51;;;;;;;7.85;4.50;;;37.10;28.40;;;;;;5113671;28;20028;-70
2021/09/08 06:50:17;;;;;;;8.02;4.82;;;36.90;28.40;;;;;;5113664;28;20062;-72
2021/09/08 06:52:43;;;;;;;8.75;4.55;;;36.90;28.50;;;;;;5113512;28;20012;-71
2021/09/08 06:55:09;;;;;;;7.20;5.00;;;36.70;28.30;;;;;;5113765;28;20094;-70
2021/09/08 06:57:35;;;;;;;7.75;4.85;;;36.40;28.40;;;;;;5113428;28;20480;-70
2021/09/08 07:00:01;;;;;;;11.02;4.97;;;36.30;28.60;;;;;;5113411;28;20031;-70
2021/09/08 07:02:26;;;;;;;8.13;5.25;;;36.20;28.70;;;;;;5095232;28;20020;-70
2021/09/08 07:04:53;;;;;;;12.20;4.95;;;36.20;28.70;;;;;;5113406;28;20023;-70
2021/09/08 07:07:20;;;;;;;5.55;4.70;;;36.10;28.70;;;;;;5113588;28;20039;-71
2021/09/08 07:09:46;;;;;;;8.20;4.97;;;36.00;28.70;;;;;;5113408;28;20465;-70
2021/09/08 07:12:12;;;;;;;8.85;4.65;;;35.80;28.80;;;;;;5094972;28;20031;-70
2021/09/08 07:14:38;;;;;;;7.63;5.03;;;35.90;28.80;;;;;;5113252;28;20031;-70
2021/09/08 07:17:04;;;;;;;9.38;4.97;;;35.80;28.80;;;;;;5110944;28;20145;-70
2021/09/08 07:19:30;;;;;;;7.35;4.53;;;35.80;28.90;;;;;;5095265;28;20031;-71
2021/09/08 07:21:55;;;;;;;6.70;4.20;;;35.80;28.70;;;;;;5096717;28;20020;-70
2021/09/08 07:24:21;;;;;;;6.65;4.30;;;35.70;28.80;;;;;;5112888;28;20032;-71
2021/09/08 07:26:47;;;;;;;9.48;4.53;;;35.50;28.70;;;;;;5113107;28;20019;-71
2021/09/08 07:29:13;;;;;;;9.38;4.78;;;35.10;28.80;;;;;;5113162;28;20019;-69
2021/09/08 07:31:39;;;;;;;5.00;4.38;;;35.00;29.00;;;;;;5112267;28;20531;-69
2021/09/08 07:34:05;;;;;;;8.73;4.30;;;34.90;29.10;;;;;;5112933;28;20031;-68
2021/09/08 07:36:30;;;;;;;8.55;4.55;;;34.80;29.10;;;;;;5114305;28;20020;-70
2021/09/08 07:38:56;;;;;;;12.25;4.70;;;34.60;29.10;;;;;;5114035;28;20027;-69
2021/09/08 07:41:22;;;;;;;12.75;4.68;;;34.50;29.20;;;;;;5113982;28;20094;-69
2021/09/08 07:43:48;;;;;;;8.80;4.60;;;34.30;29.20;;;;;;5114103;28;20054;-69
2021/09/08 07:46:14;;;;;;;18.52;4.85;;;33.90;29.20;;;;;;5114135;28;20019;-69
2021/09/08 07:48:41;;;;;;;8.32;3.60;;;33.70;29.40;;;;;;5114109;28;20102;-69
2021/09/08 07:51:07;;;;;;;11.95;5.40;;;33.40;29.40;;;;;;5113741;28;20051;-72
2021/09/08 07:53:34;;;;;;;6.95;4.40;;;33.20;29.70;;;;;;5095541;28;20059;-69
2021/09/08 07:56:00;;;;;;;7.30;4.43;;;32.90;29.70;;;;;;5113480;28;20027;-70
2021/09/08 07:58:25;;;;;;;10.35;7.47;;;32.70;29.90;;;;;;5113115;28;20048;-68
2021/09/08 08:00:51;;;;;;;10.43;3.83;;;32.60;29.90;;;;;;5095609;28;20023;-71
2021/09/08 08:03:18;;;;;;;7.25;3.90;;;32.40;29.90;;;;;;5113584;28;20091;-69
2021/09/08 08:05:44;;;;;;;10.35;3.80;;;32.20;29.90;;;;;;5113751;28;20026;-69
2021/09/08 08:08:10;;;;;;;5.15;3.35;;;32.00;29.80;;;;;;5113742;28;20027;-68
2021/09/08 08:10:36;;;;;;;7.32;4.07;;;31.80;30.00;;;;;;5113452;28;20092;-70
2021/09/08 08:13:02;;;;;;;8.23;3.25;;;31.80;30.10;;;;;;5113610;28;20030;-69
2021/09/08 08:15:28;;;;;;;6.40;4.00;;;31.60;30.10;;;;;;5095017;28;20023;-71
2021/09/08 08:17:54;;;;;;;7.10;4.07;;;31.40;30.10;;;;;;5113240;28;20059;-68
2021/09/08 08:20:21;;;;;;;8.10;3.92;;;31.30;30.20;;;;;;5094796;28;20022;-68
2021/09/08 08:22:47;;;;;;;5.90;3.40;;;31.20;30.50;;;;;;5113237;28;20016;-68
2021/09/08 08:25:16;;;;;;;8.27;3.25;;;31.10;30.40;;;;;;5113004;28;20040;-68
2021/09/08 08:27:42;;;;;;;6.70;3.55;;;31.00;30.50;;;;;;5113158;28;20026;-69
2021/09/08 08:30:10;;;;;;;6.90;3.67;;;30.90;30.40;;;;;;5113138;28;20098;-67
2021/09/08 08:32:36;;;;;;;6.88;3.70;;;30.70;30.40;;;;;;5094725;28;20024;-69
2021/09/08 08:35:03;;;;;;;6.25;3.63;;;30.70;30.20;;;;;;5112862;28;20106;-69
2021/09/08 08:37:29;;;;;;;6.43;3.67;;;30.60;30.40;;;;;;5112630;28;20104;-69
2021/09/08 08:39:55;;;;;;;4.15;3.22;;;30.50;30.50;;;;;;5112857;28;20027;-69
2021/09/08 08:42:26;;;;;;;5.40;3.80;;;30.50;30.40;;;;;;5112057;28;20069;-69
2021/09/08 08:44:53;;;;;;;4.97;3.50;;;30.20;30.10;;;;;;5112760;28;20428;-70
2021/09/08 08:47:20;;;;;;;4.50;3.25;;;30.10;30.20;;;;;;5112422;28;20062;-70
2021/09/08 08:49:47;;;;;;;6.32;3.92;;;29.80;30.40;;;;;;5112550;28;20031;-69
2021/09/08 08:52:14;;;;;;;5.55;3.33;;;29.80;30.80;;;;;;5112453;28;20358;-70
2021/09/08 08:54:40;;;;;;;4.05;3.15;;;29.70;31.00;;;;;;5112650;28;20023;-70
2021/09/08 08:57:10;;;;;;;5.97;4.03;;;29.70;31.00;;;;;;5112562;28;20106;-69
2021/09/08 08:59:41;;;;;;;6.07;3.72;;;29.60;30.90;;;;;;5112581;28;20048;-70
2021/09/08 09:02:23;;;;;;;11.43;4.10;;;29.60;31.10;;;;;;5112195;28;20059;-68
2021/09/08 09:04:51;;;;;;;11.43;4.22;;;29.60;31.30;;;;;;5112236;28;20015;-69
2021/09/08 09:07:25;;;;;;;4.72;3.50;;;29.50;31.30;;;;;;5112159;28;20016;-68
2021/09/08 09:09:54;;;;;;;5.90;3.53;;;29.50;31.50;;;;;;5112266;28;20026;-68
2021/09/08 09:12:25;;;;;;;12.07;4.13;;;29.30;31.40;;;;;;5112417;28;20030;-70
2021/09/08 09:14:50;;;;;;;8.10;3.80;;;29.10;31.60;;;;;;5112352;28;20473;-71
2021/09/08 09:17:18;;;;;;;4.47;3.90;;;29.00;31.80;;;;;;5093768;28;20043;-69
2021/09/08 09:19:50;;;;;;;6.90;3.67;;;28.90;31.90;;;;;;5111958;28;20020;-69
2021/09/08 09:22:17;;;;;;;10.98;4.53;;;28.90;32.10;;;;;;5112205;28;20020;-67
2021/09/08 09:24:43;;;;;;;6.07;3.60;;;28.90;32.50;;;;;;5112009;28;20039;-68
2021/09/08 09:27:13;;;;;;;4.43;3.67;;;28.90;32.30;;;;;;5111923;28;20365;-69
2021/09/08 09:29:44;;;;;;;6.68;4.30;;;28.80;31.80;;;;;;5111689;28;20323;-69
2021/09/08 09:32:11;;;;;;;6.07;3.50;;;28.50;32.00;;;;;;5112131;28;20022;-69
2021/09/08 09:34:39;;;;;;;5.45;3.40;;;28.30;32.10;;;;;;5112339;28;20119;-69
2021/09/08 09:37:06;;;;;;;7.28;3.95;;;28.30;32.50;;;;;;5111660;28;20068;-68
2021/09/08 09:39:34;;;;;;;8.55;4.85;;;28.40;32.90;;;;;;5111679;28;20023;-69
2021/09/08 09:42:11;;;;;;;5.93;3.45;;;28.40;33.00;;;;;;5111499;28;20024;-69
2021/09/08 09:44:40;;;;;;;6.00;3.80;;;28.50;32.70;;;;;;5111383;28;20020;-69
2021/09/08 09:47:05;;;;;;;9.65;4.10;;;28.50;32.70;;;;;;5111097;28;20024;-69
2021/09/08 09:49:33;;;;;;;6.38;4.93;;;28.50;32.80;;;;;;5111650;28;20034;-73
2021/09/08 09:52:02;;;;;;;5.65;3.85;;;28.60;32.90;;;;;;5111523;28;20098;-70
2021/09/08 09:54:28;;;;;;;8.43;3.95;;;28.60;32.80;;;;;;5111282;28;20030;-70
2021/09/08 09:56:55;;;;;;;5.38;3.60;;;28.60;32.70;;;;;;5111593;28;20023;-71
2021/09/08 09:59:21;;;;;;;8.05;3.70;;;28.50;32.70;;;;;;5111185;28;20044;-71
2021/09/08 10:01:47;;;;;;;9.68;3.85;;;28.40;32.90;;;;;;5111743;28;20031;-68
2021/09/08 10:04:14;;;;;;;9.27;4.05;;;28.40;32.80;;;;;;5111681;28;20028;-70
2021/09/08 10:06:41;;;;;;;9.52;4.60;;;28.30;32.90;;;;;;5111464;28;20027;-71
2021/09/08 10:09:11;;;;;;;12.68;7.10;;;28.30;32.90;;;;;;5093145;28;20062;-69
2021/09/08 10:11:44;;;;;;;5.80;3.78;;;28.40;33.10;;;;;;5111455;28;20053;-69
2021/09/08 10:14:21;;;;;;;6.32;3.70;;;28.40;33.20;;;;;;5104041;28;20402;-68
2021/09/08 10:16:48;;;;;;;6.40;4.03;;;28.30;33.00;;;;;;5110402;28;20073;-72
2021/09/08 10:19:27;;;;;;;9.13;4.32;;;28.20;33.90;;;;;;5109887;28;20059;-70
2021/09/08 10:21:54;;;;;;;6.32;3.70;;;28.00;33.30;;;;;;5110072;28;20071;-71
2021/09/08 10:24:24;;;;;;;8.27;3.70;;;27.90;33.40;;;;;;5111512;28;20012;-70
2021/09/08 10:26:50;;;;;;;5.53;3.85;;;27.80;33.30;;;;;;5110504;28;20020;-69
2021/09/08 10:29:16;;;;;;;7.65;3.95;;;27.80;33.60;;;;;;5102736;28;20028;-69
2021/09/08 10:31:50;;;;;;;6.60;3.95;;;27.70;33.60;;;;;;5091084;28;20047;-68
2021/09/08 10:34:16;;;;;;;7.75;4.05;;;27.60;33.70;;;;;;5090851;28;20107;-67
2021/09/08 10:36:44;;;;;;;9.43;4.80;;;27.70;33.90;;;;;;5111184;28;20032;-68
2021/09/08 10:39:10;;;;;;;9.38;4.43;;;27.60;33.90;;;;;;5092653;28;20027;-67
2021/09/08 10:41:40;;;;;;;12.27;3.90;;;27.60;33.80;;;;;;5111029;28;20042;-68
2021/09/08 10:44:06;;;;;;;5.53;3.70;;;27.50;33.80;;;;;;5110791;28;20027;-68
2021/09/08 10:46:57;;;;;;;6.53;4.30;;;27.50;33.90;;;;;;5111311;28;20031;-68
2021/09/08 10:49:40;;;;;;;8.80;6.50;;;27.40;33.90;;;;;;5103658;28;20359;-68
2021/09/08 10:52:35;;;;;;;7.45;4.53;;;27.30;33.90;;;;;;5083643;28;20467;-71
2021/09/08 10:55:00;;;;;;;6.70;4.13;;;27.30;34.00;;;;;;5106804;28;20099;-70
2021/09/08 10:57:44;;;;;;;7.47;4.10;;;27.20;34.00;;;;;;5110659;28;20557;-71
2021/09/08 11:00:20;;;;;;;5.68;3.50;;;27.10;34.10;;;;;;5092701;28;20028;-71
2021/09/08 11:02:46;;;;;;;8.32;4.13;;;27.00;34.00;;;;;;5111197;28;20015;-70
2021/09/08 11:05:13;;;;;;;7.68;3.97;;;27.00;34.20;;;;;;5111063;28;20434;-70
2021/09/08 11:07:40;;;;;;;7.47;3.90;;;26.90;34.00;;;;;;5114504;28;20018;-69
2021/09/08 11:10:07;;;;;;;5.35;3.60;;;26.90;34.00;;;;;;5096161;28;20486;-71
2021/09/08 11:12:54;;;;;;;7.95;4.00;;;26.80;33.80;;;;;;5114566;28;20024;-70
2021/09/08 11:15:47;;;;;;;7.72;3.78;;;26.70;34.20;;;;;;5113241;28;20027;-70
2021/09/08 11:18:13;;;;;;;8.90;4.00;;;26.70;34.00;;;;;;5114682;28;20042;-71
2021/09/08 11:20:40;;;;;;;11.05;3.88;;;26.60;34.90;;;;;;5094839;28;20023;-72
2021/09/08 11:23:08;;;;;;;7.80;4.18;;;26.60;34.30;;;;;;5114238;28;20031;-70
2021/09/08 11:25:36;;;;;;;11.60;4.70;;;26.50;34.30;;;;;;5114125;28;20024;-71
2021/09/08 11:28:03;;;;;;;4.20;3.70;;;26.60;34.50;;;;;;5113306;28;20437;-71
2021/09/08 11:30:31;;;;;;;5.88;3.80;;;26.60;34.30;;;;;;5114537;28;20023;-71
2021/09/08 11:33:01;;;;;;;7.60;4.50;;;26.60;34.20;;;;;;5114166;28;20031;-71
2021/09/08 11:35:37;;;;;;;7.70;4.65;;;26.50;34.20;;;;;;5114101;28;20019;-71
2021/09/08 11:38:24;;;;;;;9.18;4.40;;;26.50;34.10;;;;;;5096033;28;20088;-70
2021/09/08 11:40:58;;;;;;;9.52;4.32;;;26.40;34.50;;;;;;5114240;28;20023;-71
2021/09/08 11:43:36;;;;;;;6.25;4.00;;;26.30;34.60;;;;;;5114300;28;20020;-70
2021/09/08 11:46:11;;;;;;;8.63;4.95;;;26.30;35.30;;;;;;5114033;28;20127;-69
2021/09/08 11:48:36;;;;;;;9.00;4.07;;;26.20;34.50;;;;;;5114096;28;20040;-70
2021/09/08 11:51:05;;;;;;;11.63;4.32;;;26.10;34.40;;;;;;5113789;28;20107;-70
2021/09/08 11:53:31;;;;;;;8.88;4.32;;;26.00;34.40;;;;;;5112634;28;20028;-71
2021/09/08 11:56:26;;;;;;;8.57;3.90;;;26.00;34.60;;;;;;5113921;28;20045;-72
2021/09/08 11:58:55;;;;;;;12.32;4.00;;;25.90;34.20;;;;;;5077430;28;20130;-72
2021/09/08 12:01:22;;;;;;;7.60;3.90;;;25.80;34.30;;;;;;5113961;28;20062;-71
2021/09/08 12:03:53;;;;;;;7.28;3.67;;;25.80;34.50;;;;;;5095455;28;20493;-70
2021/09/08 12:06:21;;;;;;;9.48;4.50;;;25.70;34.80;;;;;;5114031;28;20032;-70
2021/09/08 12:08:56;;;;;;;8.23;3.88;;;25.70;35.00;;;;;;5113829;28;20050;-71
2021/09/08 12:11:42;;;;;;;10.30;4.30;;;25.60;35.10;;;;;;5095294;28;20039;-71
2021/09/08 12:14:27;;;;;;;8.23;3.75;;;25.60;35.20;;;;;;5094044;28;20127;-72
2021/09/08 12:16:55;;;;;;;10.05;4.93;;;25.60;35.20;;;;;;5112269;28;20359;-72
2021/09/08 12:19:32;;;;;;;9.38;4.75;;;25.60;35.20;;;;;;5113356;28;20107;-70
2021/09/08 12:22:15;;;;;;;9.93;4.65;;;25.50;35.30;;;;;;5113467;28;20527;-72
2021/09/08 12:24:42;;;;;;;8.30;4.57;;;25.50;35.60;;;;;;5113274;28;20030;-69
2021/09/08 12:27:36;;;;;;;11.18;4.70;;;25.50;35.50;;;;;;5113448;28;20019;-70
2021/09/08 12:30:05;;;;;;;6.70;4.18;;;25.50;35.50;;;;;;5113411;28;20481;-71
2021/09/08 12:33:00;;;;;;;10.48;4.30;;;25.40;35.40;;;;;;5112507;28;20042;-71
2021/09/08 12:35:38;;;;;;;13.13;4.70;;;25.40;35.50;;;;;;5113271;28;20090;-68
2021/09/08 12:38:33;;;;;;;7.95;4.40;;;25.40;35.60;;;;;;5093678;28;20441;-69
2021/09/08 12:41:17;;;;;;;10.02;4.95;;;25.30;35.50;;;;;;5103686;28;20478;-70
2021/09/08 12:43:52;;;;;;;8.25;5.10;;;25.20;35.50;;;;;;5092772;28;20035;-70